createdAt,value
2018-08-31T00:01:41.544Z,53.62
2018-08-31T00:04:46.007Z,53.53
2018-08-31T00:07:29.562Z,53.54
2018-08-31T00:12:12.289Z,53.38
2018-08-31T00:14:40.925Z,54.02
2018-08-31T00:17:09.433Z,54.42
2018-08-31T00:19:37.923Z,54.17
2018-08-31T00:22:06.432Z,54.55
2018-08-31T00:24:46.196Z,54.17
2018-08-31T00:27:25.807Z,54.18
2018-08-31T00:31:05.558Z,54.57
2018-08-31T00:33:44.934Z,54.81
2018-08-31T00:36:23.500Z,54.93
2018-08-31T00:39:07.648Z,55.68
2018-08-31T00:41:53.733Z,55.25
2018-08-31T00:44:30.767Z,55.10
2018-08-31T00:46:59.223Z,55.31
2018-08-31T00:49:27.744Z,55.50
2018-08-31T00:51:56.223Z,55.45
2018-08-31T00:54:24.727Z,55.13
2018-08-31T00:56:53.255Z,55.55
2018-08-31T00:59:21.768Z,55.95
2018-08-31T01:01:50.357Z,55.84
2018-08-31T01:04:18.875Z,55.76
2018-08-31T01:06:48.044Z,55.96
2018-08-31T01:09:16.556Z,55.46
2018-08-31T01:11:45.081Z,55.73
2018-08-31T01:14:13.622Z,55.57
2018-08-31T01:16:42.119Z,55.52
2018-08-31T01:19:10.648Z,56.01
2018-08-31T01:21:39.155Z,55.77
2018-08-31T01:24:07.684Z,56.08
2018-08-31T01:26:36.214Z,56.15
2018-08-31T01:29:04.720Z,55.66
2018-08-31T01:31:33.189Z,55.71
2018-08-31T01:34:01.714Z,56.16
2018-08-31T01:36:30.381Z,56.27
2018-08-31T01:38:58.914Z,56.37
2018-08-31T01:41:27.426Z,56.65
2018-08-31T01:43:55.905Z,56.62
2018-08-31T01:46:24.435Z,56.54
2018-08-31T01:48:53.006Z,56.70
2018-08-31T01:51:21.884Z,56.71
2018-08-31T01:53:50.376Z,56.97
2018-08-31T01:56:18.908Z,57.16
2018-08-31T01:58:47.430Z,56.87
2018-08-31T02:01:15.968Z,57.04
2018-08-31T02:03:44.509Z,56.64
2018-08-31T02:06:13.045Z,56.90
2018-08-31T02:08:46.873Z,57.15
2018-08-31T02:11:15.426Z,57.17
2018-08-31T02:13:43.921Z,57.59
2018-08-31T02:16:12.487Z,57.44
2018-08-31T02:18:40.976Z,57.38
2018-08-31T02:21:09.450Z,56.94
2018-08-31T02:23:38.104Z,57.70
2018-08-31T02:26:06.639Z,57.44
2018-08-31T02:28:35.102Z,57.56
2018-08-31T02:31:03.639Z,57.96
2018-08-31T02:33:32.135Z,57.73
2018-08-31T02:36:00.809Z,57.72
2018-08-31T02:38:29.347Z,58.31
2018-08-31T02:40:57.899Z,57.85
2018-08-31T02:43:26.549Z,57.84
2018-08-31T02:45:55.043Z,58.05
2018-08-31T02:48:23.508Z,58.03
2018-08-31T02:50:51.980Z,58.02
2018-08-31T02:53:20.517Z,58.03
2018-08-31T02:55:48.999Z,58.04
2018-08-31T02:58:17.480Z,57.49
2018-08-31T03:00:45.963Z,57.94
2018-08-31T03:03:14.449Z,57.91
2018-08-31T03:05:43.060Z,57.80
2018-08-31T03:08:11.606Z,58.08
2018-08-31T03:10:40.303Z,58.18
2018-08-31T03:13:08.808Z,57.87
2018-08-31T03:15:37.294Z,57.76
2018-08-31T03:18:05.796Z,58.16
2018-08-31T03:20:34.346Z,57.75
2018-08-31T03:23:02.907Z,58.09
2018-08-31T03:25:31.422Z,58.20
2018-08-31T03:27:59.967Z,58.44
2018-08-31T03:30:29.099Z,57.89
2018-08-31T03:32:57.727Z,57.94
2018-08-31T03:35:26.427Z,57.83
2018-08-31T03:37:55.349Z,57.73
2018-08-31T03:40:23.895Z,57.92
2018-08-31T03:42:52.436Z,57.68
2018-08-31T03:45:21.059Z,58.08
2018-08-31T03:47:49.975Z,57.61
2018-08-31T03:50:18.901Z,58.19
2018-08-31T03:52:47.406Z,58.38
2018-08-31T03:55:15.995Z,57.57
2018-08-31T03:57:44.559Z,57.61
2018-08-31T04:00:13.176Z,57.95
2018-08-31T04:02:41.743Z,57.93
2018-08-31T04:05:10.479Z,57.21
2018-08-31T04:07:38.995Z,57.27
2018-08-31T04:10:08.296Z,57.50
2018-08-31T04:12:36.880Z,57.98
2018-08-31T04:15:05.542Z,57.98
2018-08-31T04:17:34.040Z,58.11
2018-08-31T04:20:02.575Z,58.04
2018-08-31T04:22:31.152Z,57.58
2018-08-31T04:24:59.616Z,57.57
2018-08-31T04:27:28.218Z,58.07
2018-08-31T04:29:56.726Z,56.99
2018-08-31T04:32:25.196Z,57.38
2018-08-31T04:34:53.714Z,57.43
2018-08-31T04:37:22.238Z,58.03
2018-08-31T04:39:50.866Z,58.10
2018-08-31T04:42:19.388Z,57.57
2018-08-31T04:44:47.899Z,57.89
2018-08-31T04:47:16.453Z,58.35
2018-08-31T04:49:45.092Z,58.29
2018-08-31T04:52:13.631Z,57.80
2018-08-31T04:54:42.163Z,58.38
2018-08-31T04:57:10.720Z,57.57
2018-08-31T04:59:39.283Z,58.03
2018-08-31T05:02:07.844Z,58.32
2018-08-31T05:04:36.345Z,57.36
2018-08-31T05:07:04.920Z,57.84
2018-08-31T05:09:33.470Z,57.18
2018-08-31T05:12:02.003Z,57.62
2018-08-31T05:14:30.508Z,57.52
2018-08-31T05:16:59.116Z,57.64
2018-08-31T05:19:27.661Z,57.72
2018-08-31T05:21:56.197Z,57.60
2018-08-31T05:24:24.741Z,57.58
2018-08-31T05:26:53.233Z,57.43
2018-08-31T05:29:21.789Z,57.41
2018-08-31T05:31:50.299Z,57.94
2018-08-31T05:34:18.855Z,57.43
2018-08-31T05:36:47.362Z,57.68
2018-08-31T05:39:15.888Z,56.93
2018-08-31T05:41:44.556Z,56.92
2018-08-31T05:44:13.111Z,56.66
2018-08-31T05:46:41.668Z,56.55
2018-08-31T05:49:10.195Z,56.33
2018-08-31T05:51:38.699Z,56.14
2018-08-31T05:54:07.412Z,55.81
2018-08-31T05:56:35.995Z,56.05
2018-08-31T05:59:04.516Z,55.27
2018-08-31T06:01:32.980Z,55.34
2018-08-31T06:04:01.492Z,55.46
2018-08-31T06:06:29.954Z,54.89
2018-08-31T06:08:58.561Z,55.11
2018-08-31T06:11:27.142Z,54.77
2018-08-31T06:13:55.688Z,54.07
2018-08-31T06:16:24.351Z,54.45
2018-08-31T06:18:52.921Z,54.82
2018-08-31T06:21:21.586Z,54.32
2018-08-31T06:23:50.132Z,53.54
2018-08-31T06:26:18.737Z,53.69
2018-08-31T06:28:47.366Z,53.71
2018-08-31T06:31:16.039Z,52.71
2018-08-31T06:33:44.969Z,52.83
2018-08-31T06:36:14.098Z,52.65
2018-08-31T06:38:42.744Z,51.44
2018-08-31T06:41:11.347Z,52.04
2018-08-31T06:43:39.917Z,51.46
2018-08-31T06:46:08.467Z,50.57
2018-08-31T06:48:37.082Z,50.12
2018-08-31T06:51:05.692Z,49.71
2018-08-31T06:53:34.273Z,48.71
2018-08-31T06:56:02.906Z,48.41
2018-08-31T06:58:32.066Z,47.44
2018-08-31T07:01:01.111Z,46.90
2018-08-31T07:03:30.944Z,46.13
2018-08-31T07:05:59.630Z,44.59
2018-08-31T07:08:28.277Z,42.69
2018-08-31T07:10:56.858Z,42.14
2018-08-31T07:13:25.378Z,42.66
2018-08-31T07:15:54.027Z,41.04
2018-08-31T07:18:22.619Z,40.95
2018-08-31T07:20:52.266Z,41.84
2018-08-31T07:23:21.311Z,41.53
2018-08-31T07:25:49.896Z,41.15
2018-08-31T07:28:18.475Z,40.41
2018-08-31T07:30:47.060Z,40.48
2018-08-31T07:33:15.651Z,40.94
2018-08-31T07:35:44.163Z,40.50
2018-08-31T07:38:12.632Z,41.05
2018-08-31T07:40:41.265Z,40.93
2018-08-31T07:43:09.836Z,40.51
2018-08-31T07:45:38.344Z,41.62
2018-08-31T07:48:06.871Z,40.97
2018-08-31T07:50:35.540Z,41.53
2018-08-31T07:53:04.292Z,40.81
2018-08-31T07:55:32.958Z,40.25
2018-08-31T07:58:02.635Z,40.54
2018-08-31T08:00:31.313Z,40.21
2018-08-31T08:02:59.853Z,40.71
2018-08-31T08:05:28.649Z,39.04
2018-08-31T08:08:00.237Z,37.74
2018-08-31T08:10:28.928Z,37.52
2018-08-31T08:12:57.535Z,38.33
2018-08-31T08:15:26.112Z,36.83
2018-08-31T08:17:54.641Z,36.66
2018-08-31T08:20:23.832Z,34.83
2018-08-31T08:22:52.557Z,35.00
2018-08-31T08:25:21.410Z,33.42
2018-08-31T08:27:50.232Z,34.31
2018-08-31T08:30:18.794Z,33.32
2018-08-31T08:32:47.348Z,33.48
2018-08-31T08:35:16.006Z,33.44
2018-08-31T08:37:44.568Z,34.62
2018-08-31T08:40:13.269Z,33.66
2018-08-31T08:42:42.003Z,33.39
2018-08-31T08:45:10.512Z,34.49
2018-08-31T08:47:39.268Z,33.16
2018-08-31T08:50:07.880Z,32.60
2018-08-31T08:52:36.567Z,32.15
2018-08-31T08:55:05.256Z,32.44
2018-08-31T08:57:33.886Z,30.94
2018-08-31T09:00:02.708Z,30.81
2018-08-31T09:02:31.287Z,30.76
2018-08-31T09:04:59.903Z,31.05
2018-08-31T09:07:28.480Z,31.32
2018-08-31T09:09:57.072Z,30.44
2018-08-31T09:12:25.738Z,30.37
2018-08-31T09:14:54.349Z,29.57
2018-08-31T09:17:22.923Z,30.23
2018-08-31T09:19:51.435Z,29.62
2018-08-31T09:22:20.014Z,30.27
2018-08-31T09:24:48.676Z,30.26
2018-08-31T09:27:17.331Z,29.00
2018-08-31T09:29:46.131Z,29.34
2018-08-31T09:32:19.855Z,27.52
2018-08-31T09:34:51.965Z,27.55
2018-08-31T09:37:21.241Z,27.67
2018-08-31T09:39:50.275Z,27.12
2018-08-31T09:42:19.678Z,23.99
2018-08-31T09:44:48.400Z,23.24
2018-08-31T09:47:17.089Z,20.42
2018-08-31T09:49:46.684Z,20.54
2018-08-31T09:52:17.163Z,19.75
2018-08-31T09:54:45.791Z,19.68
2018-08-31T09:57:14.386Z,20.54
2018-08-31T09:59:42.959Z,19.66
2018-08-31T10:02:16.688Z,18.36
2018-08-31T10:04:45.974Z,18.81
2018-08-31T10:07:14.500Z,17.92
2018-08-31T10:09:43.108Z,16.81
2018-08-31T10:12:11.763Z,15.89
2018-08-31T10:14:40.270Z,16.05
2018-08-31T10:17:09.065Z,15.57
2018-08-31T10:19:37.655Z,15.23
2018-08-31T10:22:06.332Z,15.30
2018-08-31T10:24:35.137Z,15.17
2018-08-31T10:27:03.715Z,14.98
2018-08-31T10:29:32.255Z,15.67
2018-08-31T10:32:00.911Z,15.82
2018-08-31T10:34:29.439Z,17.28
2018-08-31T10:36:58.086Z,18.98
2018-08-31T10:39:27.144Z,19.00
2018-08-31T10:41:55.784Z,20.08
2018-08-31T10:44:24.351Z,21.49
2018-08-31T10:46:53.034Z,22.42
2018-08-31T10:49:21.596Z,24.13
2018-08-31T10:51:50.296Z,25.09
2018-08-31T10:54:18.941Z,25.44
2018-08-31T10:56:47.641Z,25.40
2018-08-31T10:59:16.233Z,26.35
2018-08-31T11:01:44.844Z,26.73
2018-08-31T11:04:13.336Z,27.42
2018-08-31T11:06:41.947Z,28.04
2018-08-31T11:09:10.561Z,28.79
2018-08-31T11:11:39.183Z,28.45
2018-08-31T11:14:07.660Z,29.12
2018-08-31T11:16:36.260Z,30.05
2018-08-31T11:19:04.856Z,30.89
2018-08-31T11:21:33.526Z,30.80
2018-08-31T11:24:02.223Z,30.92
2018-08-31T11:26:30.848Z,30.78
2018-08-31T11:28:59.550Z,30.41
2018-08-31T11:31:28.196Z,30.57
2018-08-31T11:33:57.245Z,30.32
2018-08-31T11:36:25.794Z,29.22
2018-08-31T11:38:54.420Z,29.19
2018-08-31T11:41:23.070Z,28.44
2018-08-31T11:43:51.721Z,26.95
2018-08-31T11:46:20.335Z,27.95
2018-08-31T11:48:49.861Z,27.81
2018-08-31T11:51:18.468Z,28.31
2018-08-31T11:53:47.053Z,28.46
2018-08-31T11:56:15.972Z,27.21
2018-08-31T11:58:44.536Z,26.39
2018-08-31T12:01:13.526Z,27.17
2018-08-31T12:03:42.095Z,26.16
2018-08-31T12:06:10.699Z,26.69
2018-08-31T12:08:39.352Z,27.58
2018-08-31T12:11:07.904Z,27.07
2018-08-31T12:13:36.680Z,28.76
2018-08-31T12:16:05.373Z,28.67
2018-08-31T12:18:42.404Z,28.40
2018-08-31T12:21:11.652Z,27.70
2018-08-31T12:23:40.143Z,27.85
2018-08-31T12:26:08.792Z,28.11
2018-08-31T12:28:37.431Z,27.88
2018-08-31T12:31:06.286Z,26.95
2018-08-31T12:33:34.889Z,27.35
2018-08-31T12:36:03.602Z,27.02
2018-08-31T12:38:32.064Z,27.38
2018-08-31T12:41:00.716Z,28.16
2018-08-31T12:43:29.262Z,28.17
2018-08-31T12:45:57.921Z,28.63
2018-08-31T12:48:26.558Z,27.51
2018-08-31T12:50:55.076Z,26.83
2018-08-31T12:53:23.730Z,26.79
2018-08-31T12:55:53.271Z,27.16
2018-08-31T12:58:21.907Z,27.33
2018-08-31T13:00:50.536Z,26.60
2018-08-31T13:03:19.151Z,26.42
2018-08-31T13:05:47.983Z,27.42
2018-08-31T13:08:16.510Z,27.36
2018-08-31T13:10:45.131Z,25.52
2018-08-31T13:13:13.715Z,26.50
2018-08-31T13:15:42.305Z,25.61
2018-08-31T13:18:10.812Z,26.02
2018-08-31T13:20:39.481Z,26.68
2018-08-31T13:23:08.163Z,26.62
2018-08-31T13:25:36.771Z,25.83
2018-08-31T13:28:05.362Z,26.24
2018-08-31T13:30:34.033Z,25.81
2018-08-31T13:33:02.792Z,25.93
2018-08-31T13:35:31.451Z,26.71
2018-08-31T13:38:00.352Z,27.45
2018-08-31T13:40:29.395Z,27.44
2018-08-31T13:42:58.005Z,27.48
2018-08-31T13:45:26.668Z,28.01
2018-08-31T13:47:55.533Z,27.87
2018-08-31T13:50:24.113Z,28.12
2018-08-31T13:52:52.727Z,29.24
2018-08-31T13:55:21.485Z,29.46
2018-08-31T13:57:50.128Z,30.16
2018-08-31T14:00:18.834Z,29.85
2018-08-31T14:02:47.513Z,29.78
2018-08-31T14:05:16.168Z,30.55
2018-08-31T14:07:45.703Z,30.62
2018-08-31T14:10:14.412Z,30.12
2018-08-31T14:12:43.127Z,28.80
2018-08-31T14:15:11.807Z,29.33
2018-08-31T14:17:40.606Z,29.55
2018-08-31T14:20:09.312Z,29.26
2018-08-31T14:22:37.959Z,29.11
2018-08-31T14:25:06.626Z,28.40
2018-08-31T14:27:35.259Z,28.66
2018-08-31T14:30:03.937Z,29.24
2018-08-31T14:32:32.553Z,28.37
2018-08-31T14:35:01.109Z,29.47
2018-08-31T14:37:30.200Z,28.69
2018-08-31T14:39:59.000Z,28.66
2018-08-31T14:42:27.805Z,28.29
2018-08-31T14:44:56.472Z,28.41
2018-08-31T14:47:25.097Z,28.61
2018-08-31T14:49:53.933Z,29.64
2018-08-31T14:52:22.502Z,29.04
2018-08-31T14:54:51.139Z,30.18
2018-08-31T14:57:19.664Z,30.05
2018-08-31T14:59:48.331Z,29.72
2018-08-31T15:02:17.020Z,29.22
2018-08-31T15:04:45.670Z,29.41
2018-08-31T15:07:14.349Z,28.74
2018-08-31T15:09:42.927Z,28.42
2018-08-31T15:12:11.460Z,29.49
2018-08-31T15:14:40.309Z,28.83
2018-08-31T15:17:08.876Z,29.02
2018-08-31T15:19:37.624Z,28.86
2018-08-31T15:22:06.280Z,29.34
2018-08-31T15:24:34.801Z,29.66
2018-08-31T15:27:03.585Z,29.62
2018-08-31T15:29:32.467Z,28.87
2018-08-31T15:32:01.132Z,29.52
2018-08-31T15:34:29.834Z,29.44
2018-08-31T15:36:58.508Z,28.74
2018-08-31T15:39:27.042Z,29.85
2018-08-31T15:41:55.628Z,29.18
2018-08-31T15:44:24.282Z,29.35
2018-08-31T15:46:52.796Z,29.56
2018-08-31T15:49:21.397Z,29.48
2018-08-31T15:51:49.968Z,29.63
2018-08-31T15:54:18.585Z,30.19
2018-08-31T15:56:47.125Z,30.42
2018-08-31T15:59:15.735Z,30.10
2018-08-31T16:01:44.305Z,30.12
2018-08-31T16:04:13.103Z,29.73
2018-08-31T16:06:41.962Z,30.36
2018-08-31T16:09:11.332Z,29.69
2018-08-31T16:11:40.072Z,29.87
2018-08-31T16:14:08.897Z,29.91
2018-08-31T16:16:37.635Z,30.06
2018-08-31T16:19:06.559Z,30.13
2018-08-31T16:21:35.178Z,30.69
2018-08-31T16:24:03.956Z,30.01
2018-08-31T16:26:32.746Z,30.76
2018-08-31T16:29:01.616Z,30.01
2018-08-31T16:31:30.320Z,29.95
2018-08-31T16:33:59.073Z,30.23
2018-08-31T16:36:27.964Z,30.39
2018-08-31T16:38:56.764Z,31.49
2018-08-31T16:41:25.628Z,31.66
2018-08-31T16:43:54.471Z,31.49
2018-08-31T16:46:23.264Z,31.93
2018-08-31T16:48:52.273Z,32.24
2018-08-31T16:51:21.044Z,31.89
2018-08-31T16:53:50.005Z,31.80
2018-08-31T16:56:19.392Z,31.91
2018-08-31T16:58:48.030Z,31.13
2018-08-31T17:01:16.717Z,32.08
2018-08-31T17:03:45.653Z,32.22
2018-08-31T17:06:14.497Z,31.48
2018-08-31T17:08:43.618Z,31.49
2018-08-31T17:11:12.588Z,31.48
2018-08-31T17:13:41.620Z,31.62
2018-08-31T17:16:10.472Z,31.32
2018-08-31T17:18:39.281Z,31.79
2018-08-31T17:21:08.088Z,31.72
2018-08-31T17:23:37.164Z,31.61
2018-08-31T17:26:06.241Z,31.50
2018-08-31T18:14:15.191Z,34.21
2018-08-31T18:16:44.931Z,35.04
2018-08-31T18:19:14.536Z,34.81
2018-08-31T18:21:49.947Z,35.04
2018-08-31T18:24:19.556Z,35.14
2018-08-31T18:26:48.991Z,35.33
2018-08-31T18:29:18.796Z,36.01
2018-08-31T18:31:48.103Z,36.19
2018-08-31T18:34:17.345Z,36.50
2018-08-31T18:36:46.293Z,36.98
2018-08-31T18:39:15.320Z,37.04
2018-08-31T18:41:44.574Z,36.52
2018-08-31T18:44:13.625Z,37.05
2018-08-31T18:46:43.537Z,37.29
2018-08-31T18:49:12.834Z,37.82
2018-08-31T18:51:42.159Z,38.55
2018-08-31T18:54:11.294Z,38.91
2018-08-31T18:56:40.910Z,38.89
2018-08-31T18:59:10.054Z,38.73
2018-08-31T19:01:39.291Z,38.86
2018-08-31T19:04:08.592Z,39.72
2018-08-31T19:06:38.217Z,39.96
2018-08-31T19:09:08.870Z,40.59
2018-08-31T19:11:37.923Z,40.64
2018-08-31T19:14:07.008Z,40.20
2018-08-31T19:16:36.317Z,40.49
2018-08-31T19:19:05.723Z,41.60
2018-08-31T19:21:34.981Z,41.39
2018-08-31T19:24:03.950Z,41.43
2018-08-31T19:26:32.892Z,41.84
2018-08-31T19:29:01.601Z,41.66
2018-08-31T19:31:30.489Z,42.26
2018-08-31T19:33:59.216Z,42.44
2018-08-31T19:36:28.903Z,42.95
2018-08-31T19:38:57.610Z,42.39
2018-08-31T19:41:26.432Z,42.32
2018-08-31T19:43:55.108Z,43.22
2018-08-31T19:46:23.911Z,43.01
2018-08-31T19:48:52.463Z,43.62
2018-08-31T19:51:21.186Z,43.70
2018-08-31T19:53:50.961Z,44.06
2018-08-31T19:56:19.594Z,44.24
2018-08-31T19:58:48.190Z,44.46
2018-08-31T20:01:16.878Z,44.41
2018-08-31T20:03:45.453Z,44.29
2018-08-31T20:06:14.079Z,44.99
2018-08-31T20:08:43.703Z,45.23
2018-08-31T20:11:12.324Z,44.95
2018-08-31T20:13:40.906Z,45.24
2018-08-31T20:16:09.692Z,45.29
2018-08-31T20:18:38.290Z,45.42
2018-08-31T20:21:06.990Z,45.12
2018-08-31T20:23:35.933Z,45.15
2018-08-31T20:26:04.469Z,45.47
2018-08-31T20:28:33.477Z,45.99
2018-08-31T20:31:02.141Z,46.39
2018-08-31T20:33:31.128Z,46.09
2018-08-31T20:36:00.369Z,46.42
2018-08-31T20:38:29.133Z,46.68
2018-08-31T20:40:57.635Z,46.72
2018-08-31T20:43:26.535Z,47.50
2018-08-31T20:45:55.692Z,47.31
2018-08-31T20:48:24.728Z,47.92
2018-08-31T20:50:53.655Z,47.40
2018-08-31T20:53:22.466Z,48.36
2018-08-31T20:55:51.017Z,48.51
2018-08-31T20:58:20.574Z,48.55
2018-08-31T21:00:49.343Z,48.32
2018-08-31T21:03:17.909Z,48.90
2018-08-31T21:05:46.612Z,49.10
2018-08-31T21:08:15.196Z,48.61
2018-08-31T21:10:43.640Z,48.84
2018-08-31T21:13:12.345Z,49.46
2018-08-31T21:15:40.912Z,49.63
2018-08-31T21:18:09.405Z,48.88
2018-08-31T21:20:37.875Z,49.54
2018-08-31T21:23:06.501Z,49.92
2018-08-31T21:25:35.029Z,49.20
2018-08-31T21:28:03.640Z,50.01
2018-08-31T21:30:32.214Z,50.12
2018-08-31T21:33:00.746Z,49.74
2018-08-31T21:35:29.338Z,50.11
2018-08-31T21:37:57.953Z,50.01
2018-08-31T21:40:26.419Z,50.43
2018-08-31T21:42:55.097Z,50.74
2018-08-31T21:45:23.689Z,50.22
2018-08-31T21:47:52.476Z,50.85
2018-08-31T21:50:21.465Z,50.56
2018-08-31T21:52:50.470Z,50.40
2018-08-31T21:55:19.684Z,50.94
2018-08-31T21:57:48.230Z,50.75
2018-08-31T22:00:22.084Z,50.85
2018-08-31T22:02:51.417Z,50.81
2018-08-31T22:05:20.048Z,50.90
2018-08-31T22:07:48.585Z,51.58
2018-08-31T22:10:17.200Z,51.76
2018-08-31T22:12:45.795Z,51.60
2018-08-31T22:15:18.840Z,51.55
2018-08-31T22:17:47.429Z,51.96
2018-08-31T22:20:15.988Z,51.55
2018-08-31T22:22:44.589Z,51.74
2018-08-31T22:25:13.121Z,52.29
2018-08-31T22:27:41.647Z,51.90
2018-08-31T22:30:10.730Z,52.26
2018-08-31T22:32:39.257Z,51.97
2018-08-31T22:35:07.781Z,52.50
2018-08-31T22:37:36.292Z,52.63
2018-08-31T22:40:05.090Z,52.46
2018-08-31T22:42:33.712Z,52.45
2018-08-31T22:45:02.385Z,53.03
2018-08-31T22:47:30.947Z,52.56
2018-08-31T22:49:59.455Z,52.78
2018-08-31T22:52:27.926Z,53.34
2018-08-31T22:54:56.514Z,52.82
2018-08-31T22:57:25.069Z,52.84
2018-08-31T22:59:53.566Z,53.23
2018-08-31T23:02:22.084Z,53.10
2018-08-31T23:04:50.599Z,52.92
2018-08-31T23:07:24.463Z,53.61
2018-08-31T23:09:52.996Z,53.77
2018-08-31T23:12:21.528Z,53.30
2018-08-31T23:14:50.057Z,53.60
2018-08-31T23:17:21.639Z,53.88
2018-08-31T23:19:50.132Z,53.97
2018-08-31T23:22:18.705Z,54.06
2018-08-31T23:24:47.297Z,54.00
2018-08-31T23:27:15.879Z,54.40
2018-08-31T23:29:44.566Z,54.76
2018-08-31T23:32:13.064Z,55.29
2018-08-31T23:34:41.689Z,54.81
2018-08-31T23:37:10.261Z,55.11
2018-08-31T23:39:38.858Z,55.23
2018-08-31T23:42:07.364Z,54.92
2018-08-31T23:44:35.845Z,54.96
2018-08-31T23:47:04.380Z,54.87
2018-08-31T23:49:32.990Z,55.29
2018-08-31T23:52:01.596Z,55.04
2018-08-31T23:54:30.252Z,54.98
2018-08-31T23:56:58.828Z,55.48
2018-08-31T23:59:27.473Z,55.28
